Terminal Aerodrome Forecast
Issued by NWS

Home | Current Version | Previous Version | Text Only | Print | Product List | Glossary On
Versions: 1 2 3 4 5 6 7 8 9 10 11 12 13 14
851
FTUS43 KBIS 272146 AAB
TAFMOT
TAF AMD
KMOT 272146Z 2722/2818 05007KT P6SM SCT040 BKN070
     FM272300 06008KT P6SM VCSH BKN050
     FM280300 07004KT P6SM SCT060=

USA.gov is the U.S. government's official web portal to all federal, state and local government web resources and services.